Time;durP1;ratioP1;P1;durP2;ratioP2;P2;SDS_P1;SDS_P2;PMS_P1;PMS_P2;Temp;Humidity;BMP_temperature;BMP_pressure;BME280_temperature;BME280_humidity;BME280_pressure;Samples;Min_cycle;Max_cycle;Signal;HPM_P1;HPM_P2
2023/12/01 00:00:08;;;;;;;5.05;2.47;;;-0.20;99.90;;;;;;4939389;29;20040;-82
2023/12/01 00:02:34;;;;;;;5.45;3.53;;;-0.10;99.90;;;;;;4941805;28;20508;-81
2023/12/01 00:05:00;;;;;;;3.00;2.75;;;-0.10;99.90;;;;;;4927935;29;20032;-81
2023/12/01 00:07:26;;;;;;;2.08;1.92;;;-0.10;99.90;;;;;;4925167;29;20496;-80
2023/12/01 00:09:52;;;;;;;22.45;4.88;;;-0.20;99.90;;;;;;4924252;29;20401;-81
2023/12/01 00:12:19;;;;;;;15.05;2.75;;;-0.20;99.90;;;;;;4927665;29;20031;-81
2023/12/01 00:14:45;;;;;;;2.05;1.90;;;-0.20;99.90;;;;;;4928850;29;20058;-81
2023/12/01 00:17:11;;;;;;;2.10;1.95;;;-0.30;99.90;;;;;;4931102;29;20031;-81
2023/12/01 00:19:37;;;;;;;3.60;2.83;;;-0.20;99.90;;;;;;4930568;29;20028;-81
2023/12/01 00:22:04;;;;;;;5.90;3.17;;;-0.20;99.90;;;;;;4929595;29;20075;-81
2023/12/01 00:24:30;;;;;;;2.22;2.08;;;-0.20;99.90;;;;;;4930242;29;20043;-81
2023/12/01 00:26:56;;;;;;;2.15;1.77;;;-0.20;99.90;;;;;;4932284;29;20020;-82
2023/12/01 00:29:22;;;;;;;2.13;2.03;;;-0.20;99.90;;;;;;4929972;29;20040;-81
2023/12/01 00:31:48;;;;;;;2.92;2.65;;;-0.10;99.90;;;;;;4941145;29;20042;-81
2023/12/01 00:34:14;;;;;;;0.98;0.95;;;-0.10;99.90;;;;;;4942899;29;20071;-82
2023/12/01 00:36:41;;;;;;;2.42;2.22;;;-0.10;99.90;;;;;;4929394;29;20051;-81
2023/12/01 00:39:07;;;;;;;4.85;2.65;;;-0.10;99.90;;;;;;4929037;29;20373;-81
2023/12/01 00:41:33;;;;;;;8.15;3.33;;;-0.10;99.90;;;;;;4924720;29;20036;-82
2023/12/01 00:43:59;;;;;;;3.15;2.67;;;-0.10;99.90;;;;;;4918030;29;20048;-80
2023/12/01 00:46:26;;;;;;;2.72;2.53;;;-0.10;99.90;;;;;;4952196;28;20055;-81
2023/12/01 00:48:52;;;;;;;2.75;2.55;;;-0.10;99.90;;;;;;4949216;28;20043;-82
2023/12/01 00:51:19;;;;;;;1.92;1.83;;;-0.10;99.90;;;;;;4970447;28;20058;-80
2023/12/01 00:53:47;;;;;;;1.95;1.85;;;0.00;99.90;;;;;;4964388;28;20042;-82
2023/12/01 00:56:14;;;;;;;4.72;3.53;;;0.00;99.90;;;;;;4965113;28;20030;-81
2023/12/01 00:58:40;;;;;;;1.65;1.55;;;0.00;99.90;;;;;;4966503;28;20039;-82
2023/12/01 01:01:06;;;;;;;1.85;1.70;;;0.10;99.90;;;;;;4967728;28;20047;-82
2023/12/01 01:03:34;;;;;;;3.35;1.05;;;0.10;99.90;;;;;;4950935;28;20049;-82
2023/12/01 01:06:02;;;;;;;1.90;1.80;;;0.10;99.90;;;;;;4964213;28;20034;-82
2023/12/01 01:08:29;;;;;;;3.60;3.30;;;0.10;99.90;;;;;;4970014;28;20118;-82
2023/12/01 01:10:55;;;;;;;1.15;1.15;;;0.10;99.90;;;;;;4969628;28;20645;-81
2023/12/01 01:13:22;;;;;;;6.57;3.85;;;0.10;99.90;;;;;;4951721;28;20059;-82
2023/12/01 01:15:48;;;;;;;1.42;1.33;;;0.10;99.90;;;;;;4953095;28;20047;-82
2023/12/01 01:18:15;;;;;;;3.38;2.60;;;0.10;99.90;;;;;;4963660;28;20043;-82
2023/12/01 01:20:41;;;;;;;4.57;4.20;;;0.20;99.90;;;;;;4954685;28;20039;-81
2023/12/01 01:23:07;;;;;;;2.53;2.30;;;0.20;99.90;;;;;;4963899;28;20038;-81
2023/12/01 01:25:33;;;;;;;2.95;1.67;;;0.20;99.90;;;;;;4957416;28;20031;-81
2023/12/01 01:28:00;;;;;;;2.65;1.55;;;0.10;99.90;;;;;;4947917;28;20035;-81
2023/12/01 01:30:26;;;;;;;2.85;2.65;;;0.10;99.90;;;;;;4968496;28;20038;-81
2023/12/01 01:32:52;;;;;;;1.02;0.47;;;0.10;99.90;;;;;;4964208;28;20042;-81
2023/12/01 01:35:18;;;;;;;2.53;2.33;;;0.10;99.90;;;;;;4965495;28;20492;-80
2023/12/01 01:37:44;;;;;;;4.55;4.13;;;0.20;99.90;;;;;;4957053;28;20053;-81
2023/12/01 01:40:14;;;;;;;3.83;3.03;;;0.20;99.90;;;;;;4946988;28;20074;-81
2023/12/01 01:42:40;;;;;;;3.25;2.58;;;0.20;99.90;;;;;;4964991;28;20115;-81
2023/12/01 01:45:06;;;;;;;5.05;4.00;;;0.20;99.90;;;;;;4966934;28;20051;-81
2023/12/01 01:47:33;;;;;;;3.72;3.42;;;0.30;99.90;;;;;;4974018;28;20476;-81
2023/12/01 01:50:06;;;;;;;3.13;2.47;;;0.30;99.90;;;;;;4972276;28;20038;-81
2023/12/01 01:52:33;;;;;;;3.13;2.58;;;0.30;99.90;;;;;;4965837;28;20034;-81
2023/12/01 01:54:59;;;;;;;5.13;2.25;;;0.30;99.90;;;;;;4962585;28;20397;-82
2023/12/01 01:57:26;;;;;;;3.88;2.10;;;0.30;99.90;;;;;;4947243;28;20043;-81
2023/12/01 01:59:52;;;;;;;7.72;3.40;;;0.20;99.90;;;;;;4961204;28;20050;-81
2023/12/01 02:02:18;;;;;;;2.88;2.35;;;0.20;99.90;;;;;;4951213;28;20364;-81
2023/12/01 02:04:44;;;;;;;2.47;2.28;;;0.20;99.90;;;;;;4962652;28;20051;-81
2023/12/01 02:07:26;;;;;;;2.78;2.58;;;0.10;99.90;;;;;;4968987;28;20034;-81
2023/12/01 02:09:54;;;;;;;3.78;2.17;;;0.20;99.90;;;;;;4947488;28;20039;-81
2023/12/01 02:12:20;;;;;;;3.55;3.25;;;0.10;99.90;;;;;;4963540;28;20035;-81
2023/12/01 02:14:46;;;;;;;2.25;2.13;;;0.10;99.90;;;;;;4961850;28;20047;-81
2023/12/01 02:17:12;;;;;;;0.88;0.88;;;0.10;99.90;;;;;;4961517;28;20039;-82
2023/12/01 02:19:39;;;;;;;3.28;2.00;;;0.10;99.90;;;;;;4961522;28;20035;-81
2023/12/01 02:22:08;;;;;;;3.20;2.85;;;0.10;99.90;;;;;;4966593;28;20030;-81
2023/12/01 02:24:34;;;;;;;4.13;2.53;;;0.20;99.90;;;;;;4962943;28;20047;-82
2023/12/01 02:27:01;;;;;;;6.05;4.60;;;0.20;99.90;;;;;;4952960;28;20046;-82
2023/12/01 02:29:27;;;;;;;5.00;4.53;;;0.10;99.90;;;;;;4961952;28;20035;-82
2023/12/01 02:31:53;;;;;;;1.80;1.67;;;0.20;99.90;;;;;;4961903;28;20042;-83
2023/12/01 02:34:21;;;;;;;2.80;1.40;;;0.20;99.90;;;;;;4941650;28;20476;-82
2023/12/01 02:36:47;;;;;;;1.75;0.80;;;0.20;99.90;;;;;;4966205;28;20046;-82
2023/12/01 02:39:13;;;;;;;1.55;1.15;;;0.20;99.90;;;;;;4965844;28;20039;-82
2023/12/01 02:41:40;;;;;;;3.92;2.05;;;0.20;99.90;;;;;;4966387;28;20034;-82
2023/12/01 02:44:06;;;;;;;1.38;1.27;;;0.10;99.90;;;;;;4943353;28;20066;-81
2023/12/01 02:46:32;;;;;;;1.92;1.83;;;0.20;99.90;;;;;;4968796;28;20058;-82
2023/12/01 02:48:58;;;;;;;1.15;1.05;;;0.20;99.90;;;;;;4965647;28;20030;-82
2023/12/01 02:51:24;;;;;;;7.78;5.28;;;0.20;99.90;;;;;;4953295;28;20039;-81
2023/12/01 02:53:51;;;;;;;3.42;3.13;;;0.20;99.90;;;;;;4964384;28;20503;-81
2023/12/01 02:56:18;;;;;;;1.90;1.77;;;0.20;99.90;;;;;;4964350;28;20066;-81
2023/12/01 02:58:44;;;;;;;1.55;1.27;;;0.20;99.90;;;;;;4948043;28;20027;-81
2023/12/01 03:01:10;;;;;;;2.38;1.45;;;0.20;99.90;;;;;;4964348;28;20046;-81
2023/12/01 03:03:37;;;;;;;1.58;1.48;;;0.20;99.90;;;;;;4952080;28;20058;-81
2023/12/01 03:06:03;;;;;;;3.10;2.80;;;0.20;99.90;;;;;;4971343;28;20518;-81
2023/12/01 03:08:30;;;;;;;4.15;3.47;;;0.20;99.90;;;;;;4970669;28;20042;-81
2023/12/01 03:10:56;;;;;;;2.75;2.60;;;0.20;99.90;;;;;;4948747;28;20027;-82
2023/12/01 03:13:23;;;;;;;2.13;1.30;;;0.20;99.90;;;;;;4963273;28;20050;-81
2023/12/01 03:15:49;;;;;;;3.80;3.25;;;0.20;99.90;;;;;;4968432;28;20384;-82
2023/12/01 03:18:15;;;;;;;2.83;2.60;;;0.20;99.90;;;;;;4969906;28;20027;-81
2023/12/01 03:20:42;;;;;;;5.63;4.65;;;0.30;99.90;;;;;;4953754;28;20046;-80
2023/12/01 03:23:08;;;;;;;3.08;2.88;;;0.30;99.90;;;;;;4970575;28;20027;-80
2023/12/01 03:25:35;;;;;;;1.23;1.23;;;0.30;99.90;;;;;;4942084;28;20043;-80
2023/12/01 03:28:01;;;;;;;3.58;3.28;;;0.30;99.90;;;;;;4958960;28;20035;-82
2023/12/01 03:30:27;;;;;;;2.75;2.55;;;0.40;99.90;;;;;;4966656;28;20042;-81
2023/12/01 03:32:53;;;;;;;2.40;2.22;;;0.30;99.90;;;;;;4964889;28;20031;-82
2023/12/01 03:35:21;;;;;;;2.08;1.95;;;0.40;99.90;;;;;;4966712;28;20037;-82
2023/12/01 03:37:49;;;;;;;0.93;0.93;;;0.40;99.90;;;;;;4950524;28;20035;-81
2023/12/01 03:40:15;;;;;;;2.65;2.20;;;0.30;99.90;;;;;;4972465;28;20038;-82
2023/12/01 03:42:49;;;;;;;2.78;2.58;;;0.40;99.90;;;;;;4967888;28;20039;-81
2023/12/01 03:45:16;;;;;;;4.75;3.28;;;0.40;99.90;;;;;;4968684;28;20050;-82
2023/12/01 03:47:47;;;;;;;2.83;2.40;;;0.40;99.90;;;;;;4968790;28;20047;-82
2023/12/01 03:50:14;;;;;;;2.20;2.03;;;0.40;99.90;;;;;;4969703;28;20039;-82
2023/12/01 03:52:41;;;;;;;4.70;3.00;;;0.40;99.90;;;;;;4955532;28;20046;-81
2023/12/01 03:55:09;;;;;;;4.10;2.05;;;0.40;99.90;;;;;;4962698;28;20474;-81
2023/12/01 03:57:36;;;;;;;2.55;2.35;;;0.40;99.90;;;;;;4969670;28;20031;-81
2023/12/01 04:00:07;;;;;;;4.97;4.22;;;0.40;99.90;;;;;;4970662;28;20031;-81
2023/12/01 04:02:43;;;;;;;2.22;2.08;;;0.40;99.90;;;;;;4977625;28;20045;-81
2023/12/01 04:05:17;;;;;;;5.50;3.33;;;0.40;99.90;;;;;;4963323;28;20050;-82
2023/12/01 04:07:45;;;;;;;2.58;2.38;;;0.40;99.90;;;;;;4962937;28;20050;-82
2023/12/01 04:10:12;;;;;;;12.00;3.88;;;0.40;99.90;;;;;;4968426;28;20032;-81
2023/12/01 04:12:44;;;;;;;2.53;2.33;;;0.40;99.90;;;;;;4966943;28;20050;-81
2023/12/01 04:15:13;;;;;;;1.45;1.27;;;0.40;99.90;;;;;;4946159;28;20043;-82
2023/12/01 04:17:43;;;;;;;4.05;2.95;;;0.40;99.90;;;;;;4963041;28;20472;-82
2023/12/01 04:20:20;;;;;;;5.88;3.92;;;0.40;99.90;;;;;;4953772;28;20038;-82
2023/12/01 04:22:58;;;;;;;9.60;2.67;;;0.40;99.90;;;;;;4953138;28;20349;-82
2023/12/01 04:25:25;;;;;;;4.75;4.20;;;0.40;99.90;;;;;;4948535;28;20058;-82
2023/12/01 04:27:52;;;;;;;3.13;2.60;;;0.40;99.90;;;;;;4946165;28;20503;-81
2023/12/01 04:30:20;;;;;;;7.90;5.00;;;0.40;99.90;;;;;;4966228;28;20036;-82
2023/12/01 04:32:52;;;;;;;1.52;1.42;;;0.40;99.90;;;;;;4975426;28;20042;-82
2023/12/01 04:35:20;;;;;;;1.65;1.55;;;0.40;99.90;;;;;;4972134;28;20054;-80
2023/12/01 04:37:46;;;;;;;4.50;2.95;;;0.50;99.90;;;;;;4952120;28;20196;-81
2023/12/01 04:40:15;;;;;;;4.00;3.63;;;0.50;99.90;;;;;;4968532;28;20057;-82
2023/12/01 04:42:48;;;;;;;2.88;2.22;;;0.40;99.90;;;;;;4964225;28;20392;-81
2023/12/01 04:45:24;;;;;;;4.88;3.50;;;0.50;99.90;;;;;;4987054;28;20055;-82
2023/12/01 04:47:51;;;;;;;3.00;2.78;;;0.50;99.90;;;;;;4967561;28;20469;-81
2023/12/01 04:50:21;;;;;;;3.28;2.97;;;0.40;99.90;;;;;;4970720;28;20050;-82
2023/12/01 04:52:50;;;;;;;5.25;4.40;;;0.40;99.90;;;;;;4963693;28;20043;-83
2023/12/01 04:55:18;;;;;;;2.25;2.10;;;0.50;99.90;;;;;;4967652;28;20421;-82
2023/12/01 04:57:45;;;;;;;4.60;3.08;;;0.50;99.90;;;;;;4947489;28;20469;-82
2023/12/01 05:00:21;;;;;;;4.05;1.88;;;0.50;99.90;;;;;;4965063;28;20038;-82
2023/12/01 05:02:48;;;;;;;2.58;2.45;;;0.50;99.90;;;;;;4968087;28;20226;-82
2023/12/01 05:05:15;;;;;;;1.15;1.15;;;0.50;99.90;;;;;;4969345;28;20042;-81
2023/12/01 05:07:42;;;;;;;6.03;3.88;;;0.50;99.90;;;;;;4951777;28;20507;-82
2023/12/01 05:10:14;;;;;;;39.55;6.43;;;0.50;99.90;;;;;;4967781;28;20038;-83
2023/12/01 05:12:42;;;;;;;25.55;3.83;;;0.60;99.90;;;;;;4949497;28;20044;-81
2023/12/01 05:15:15;;;;;;;7.68;4.05;;;0.50;99.90;;;;;;4953400;28;20038;-82
2023/12/01 05:17:44;;;;;;;5.68;5.07;;;0.50;99.90;;;;;;4963535;28;20050;-82
2023/12/01 05:20:15;;;;;;;1.92;1.80;;;0.60;99.90;;;;;;4965954;28;20483;-82
2023/12/01 05:22:49;;;;;;;6.38;4.13;;;0.60;99.90;;;;;;4965208;28;20038;-82
2023/12/01 05:25:17;;;;;;;4.00;3.55;;;0.50;99.90;;;;;;4945887;28;20043;-83
2023/12/01 05:27:49;;;;;;;5.32;3.58;;;0.60;99.90;;;;;;4967228;28;20432;-81
2023/12/01 05:30:21;;;;;;;4.72;4.38;;;0.60;99.90;;;;;;4948346;28;20038;-82
2023/12/01 05:32:49;;;;;;;9.13;3.63;;;0.60;99.90;;;;;;4962686;28;20031;-81
2023/12/01 05:35:16;;;;;;;2.05;1.95;;;0.60;99.90;;;;;;4962947;28;20058;-81
2023/12/01 05:37:48;;;;;;;7.72;3.22;;;0.60;99.90;;;;;;4967448;28;20365;-81
2023/12/01 05:40:20;;;;;;;4.35;4.05;;;0.70;99.90;;;;;;4966678;28;21911;-78
2023/12/01 05:42:48;;;;;;;4.13;3.88;;;0.60;99.90;;;;;;4965529;28;20035;-81
2023/12/01 05:45:15;;;;;;;4.18;1.10;;;0.60;99.90;;;;;;4961504;28;20051;-81
2023/12/01 05:47:43;;;;;;;3.22;3.03;;;0.60;99.90;;;;;;4966313;28;20034;-82
2023/12/01 05:50:24;;;;;;;1.88;1.77;;;0.60;99.90;;;;;;4964228;28;20038;-82
2023/12/01 05:52:51;;;;;;;3.22;2.95;;;0.70;99.90;;;;;;4956432;28;20654;-82
2023/12/01 05:55:20;;;;;;;3.40;3.10;;;0.70;99.90;;;;;;4961002;28;20392;-81
2023/12/01 05:57:48;;;;;;;2.80;2.60;;;0.70;99.90;;;;;;4935325;28;20035;-80
2023/12/01 06:00:15;;;;;;;7.57;1.92;;;0.70;99.90;;;;;;4953911;28;20043;-77
2023/12/01 06:02:43;;;;;;;2.85;2.65;;;0.70;99.90;;;;;;4963761;28;20035;-77
2023/12/01 06:05:11;;;;;;;5.47;4.55;;;0.70;99.90;;;;;;4945103;28;20043;-80
2023/12/01 06:07:39;;;;;;;8.32;4.95;;;0.70;99.90;;;;;;4935399;28;20480;-80
2023/12/01 06:10:06;;;;;;;2.58;2.08;;;0.70;99.90;;;;;;4965035;28;20085;-82
2023/12/01 06:12:33;;;;;;;5.95;3.60;;;0.70;99.90;;;;;;4965614;28;20477;-81
2023/12/01 06:15:00;;;;;;;2.70;2.50;;;0.80;99.90;;;;;;4950796;28;20041;-81
2023/12/01 06:17:26;;;;;;;2.97;2.78;;;0.80;99.90;;;;;;4964917;28;20043;-79
2023/12/01 06:19:52;;;;;;;7.68;4.35;;;0.70;99.90;;;;;;4949041;28;20194;-79
2023/12/01 06:22:18;;;;;;;3.85;3.55;;;0.80;99.90;;;;;;4967776;28;20047;-80
2023/12/01 06:24:44;;;;;;;3.67;3.10;;;0.80;99.90;;;;;;4961731;28;20076;-82
2023/12/01 06:27:11;;;;;;;2.45;2.25;;;0.80;99.90;;;;;;4964881;28;20058;-79
2023/12/01 06:29:38;;;;;;;7.20;3.13;;;0.80;99.90;;;;;;4960026;28;20468;-79
2023/12/01 06:32:04;;;;;;;6.93;3.88;;;0.80;99.90;;;;;;4965434;28;20054;-79
2023/12/01 06:34:31;;;;;;;2.38;2.22;;;0.80;99.90;;;;;;4964573;28;20054;-78
2023/12/01 06:36:58;;;;;;;12.85;6.32;;;0.80;99.90;;;;;;4965365;28;20054;-78
2023/12/01 06:39:26;;;;;;;3.85;3.55;;;0.80;99.90;;;;;;4974392;28;20080;-79
2023/12/01 06:41:53;;;;;;;5.47;1.92;;;0.80;99.90;;;;;;4967476;28;20480;-79
2023/12/01 06:44:20;;;;;;;2.72;1.92;;;0.80;99.90;;;;;;4974121;28;20054;-79
2023/12/01 06:46:46;;;;;;;5.72;5.20;;;0.80;99.90;;;;;;4974998;28;20076;-80
2023/12/01 06:49:12;;;;;;;2.10;1.98;;;0.80;99.90;;;;;;4948605;28;20054;-79
2023/12/01 06:51:39;;;;;;;1.85;1.75;;;0.80;99.90;;;;;;4952673;28;20058;-80
2023/12/01 06:54:09;;;;;;;2.95;2.70;;;0.80;99.90;;;;;;4974099;28;20038;-79
2023/12/01 06:56:37;;;;;;;0.70;0.70;;;0.80;99.90;;;;;;4967594;28;20039;-79
2023/12/01 06:59:05;;;;;;;3.30;3.00;;;0.80;99.90;;;;;;4971638;28;20041;-80
2023/12/01 07:01:32;;;;;;;10.23;4.13;;;0.80;99.90;;;;;;4972559;28;20037;-79
2023/12/01 07:03:58;;;;;;;4.20;2.50;;;0.80;99.90;;;;;;4971466;28;20039;-79
2023/12/01 07:06:24;;;;;;;3.15;2.25;;;0.80;99.90;;;;;;4972353;28;20472;-79
2023/12/01 07:08:50;;;;;;;2.60;2.30;;;0.80;99.90;;;;;;4973887;28;20046;-79
2023/12/01 07:11:16;;;;;;;2.63;1.55;;;0.90;99.90;;;;;;4972074;28;20046;-78
2023/12/01 07:13:43;;;;;;;3.03;2.72;;;0.80;99.90;;;;;;4955447;28;20049;-79
2023/12/01 07:16:09;;;;;;;2.63;2.35;;;0.80;99.90;;;;;;4973825;28;20042;-79
2023/12/01 07:18:38;;;;;;;2.40;2.30;;;0.80;99.90;;;;;;4973732;28;20026;-79
2023/12/01 07:21:06;;;;;;;2.88;2.60;;;0.80;99.90;;;;;;4965449;28;20046;-78
2023/12/01 07:23:36;;;;;;;7.57;4.55;;;0.90;99.90;;;;;;4954590;28;20063;-77
2023/12/01 07:26:03;;;;;;;7.00;2.15;;;0.90;99.90;;;;;;4953942;28;20049;-79
2023/12/01 07:28:29;;;;;;;2.58;2.38;;;0.80;99.90;;;;;;4968899;28;20068;-80
2023/12/01 07:30:55;;;;;;;1.90;1.80;;;0.80;99.90;;;;;;4965087;28;20022;-79
2023/12/01 07:33:21;;;;;;;2.25;2.05;;;0.80;99.90;;;;;;4969810;28;20460;-79
2023/12/01 07:35:48;;;;;;;3.63;3.33;;;0.90;99.90;;;;;;4952391;28;20388;-79
2023/12/01 07:38:16;;;;;;;3.67;3.00;;;0.90;99.90;;;;;;4970371;28;20204;-80
2023/12/01 07:40:42;;;;;;;2.78;2.58;;;0.90;99.90;;;;;;4970296;28;20062;-80
2023/12/01 07:43:08;;;;;;;4.90;2.70;;;0.90;99.90;;;;;;4959410;28;20487;-79
2023/12/01 07:45:35;;;;;;;3.92;2.30;;;0.90;99.90;;;;;;4967235;28;20059;-79
2023/12/01 07:48:01;;;;;;;3.33;2.65;;;0.90;99.90;;;;;;4952920;28;20038;-79
2023/12/01 07:50:27;;;;;;;8.43;3.55;;;0.80;99.90;;;;;;4969175;28;20031;-80
2023/12/01 07:52:54;;;;;;;2.25;1.98;;;0.90;99.90;;;;;;4966454;28;20460;-81
2023/12/01 07:55:20;;;;;;;1.33;1.23;;;0.90;99.90;;;;;;4969665;28;20128;-80
2023/12/01 07:57:47;;;;;;;2.28;2.10;;;0.90;99.90;;;;;;4964365;28;20053;-81
2023/12/01 08:00:14;;;;;;;2.00;1.70;;;0.90;99.90;;;;;;4952948;28;20042;-80
2023/12/01 08:02:41;;;;;;;1.13;1.00;;;0.90;99.90;;;;;;4959214;28;20050;-80
2023/12/01 08:05:13;;;;;;;3.35;1.90;;;0.90;99.90;;;;;;4932933;28;20055;-80
2023/12/01 08:07:40;;;;;;;6.90;2.20;;;1.00;99.90;;;;;;4963469;28;20026;-82
2023/12/01 08:10:07;;;;;;;3.25;2.95;;;0.90;99.90;;;;;;4951763;28;20074;-82
2023/12/01 08:12:34;;;;;;;2.35;2.00;;;1.00;99.90;;;;;;4966745;28;20039;-82
2023/12/01 08:15:00;;;;;;;2.97;2.30;;;0.90;99.90;;;;;;4941768;28;20481;-81
2023/12/01 08:17:26;;;;;;;3.33;2.95;;;0.90;99.10;;;;;;4950010;28;20396;-81
2023/12/01 08:19:52;;;;;;;8.82;4.80;;;0.90;93.80;;;;;;4966383;28;20035;-80
2023/12/01 08:22:19;;;;;;;2.13;1.92;;;1.00;90.80;;;;;;4968989;28;20027;-81
2023/12/01 08:24:45;;;;;;;2.38;2.28;;;1.00;81.90;;;;;;4980513;28;20039;-81
2023/12/01 08:27:12;;;;;;;2.50;0.95;;;0.90;74.30;;;;;;4975412;28;20034;-80
2023/12/01 08:29:38;;;;;;;3.05;2.63;;;1.00;59.80;;;;;;4971167;28;20031;-81
2023/12/01 08:32:05;;;;;;;5.07;3.20;;;1.00;52.50;;;;;;4968062;28;20054;-80
2023/12/01 08:34:32;;;;;;;5.70;2.80;;;1.00;50.40;;;;;;4954433;28;20031;-78
2023/12/01 08:36:58;;;;;;;3.25;2.30;;;1.00;38.30;;;;;;4956228;28;20027;-81
2023/12/01 08:39:24;;;;;;;2.80;2.03;;;1.00;26.70;;;;;;4972260;28;20083;-80
2023/12/01 08:41:55;;;;;;;4.45;4.07;;;1.00;27.40;;;;;;4964742;28;20408;-76
2023/12/01 08:44:21;;;;;;;7.57;3.10;;;1.00;24.40;;;;;;4965423;28;20054;-80
2023/12/01 08:46:47;;;;;;;4.30;3.03;;;1.10;18.40;;;;;;4935391;28;20077;-80
2023/12/01 08:49:13;;;;;;;1.98;1.88;;;1.10;20.60;;;;;;4954517;28;20051;-80
2023/12/01 08:51:40;;;;;;;4.38;3.40;;;1.10;20.10;;;;;;4961099;28;20038;-80
2023/12/01 08:54:06;;;;;;;1.40;1.30;;;1.10;12.90;;;;;;4967274;28;20031;-80
2023/12/01 08:56:34;;;;;;;2.08;1.92;;;1.10;9.00;;;;;;4941994;28;20392;-81
2023/12/01 08:59:01;;;;;;;3.88;3.55;;;1.10;2.60;;;;;;4966440;28;20038;-80
2023/12/01 09:01:27;;;;;;;6.90;2.92;;;1.10;1.00;;;;;;4963418;28;20748;-80
2023/12/01 09:03:54;;;;;;;2.92;2.65;;;1.20;1.00;;;;;;4965411;28;20034;-79
2023/12/01 09:06:20;;;;;;;2.30;2.15;;;1.20;1.00;;;;;;4968009;28;20050;-79
2023/12/01 09:08:47;;;;;;;3.38;3.08;;;1.20;1.00;;;;;;4945437;28;20400;-80
2023/12/01 09:11:17;;;;;;;2.95;2.42;;;1.20;1.00;;;;;;4952417;28;20048;-80
2023/12/01 09:13:43;;;;;;;5.00;3.40;;;1.20;1.00;;;;;;4954708;28;20050;-80
2023/12/01 09:16:09;;;;;;;2.88;2.42;;;1.20;1.00;;;;;;4961134;28;20050;-80
2023/12/01 09:18:36;;;;;;;1.00;1.00;;;1.20;1.00;;;;;;4949007;28;20033;-80
2023/12/01 09:21:02;;;;;;;3.20;2.78;;;1.30;1.00;;;;;;4940503;28;20039;-80
2023/12/01 09:23:28;;;;;;;3.13;2.90;;;1.30;1.00;;;;;;4967760;28;20031;-80
2023/12/01 09:25:55;;;;;;;0.98;0.98;;;1.30;1.00;;;;;;4961127;28;20058;-81
2023/12/01 09:28:23;;;;;;;9.90;2.67;;;1.40;1.00;;;;;;4933207;28;20042;-80
2023/12/01 09:30:49;;;;;;;3.58;2.55;;;1.40;1.00;;;;;;4967929;28;20034;-79
2023/12/01 09:33:16;;;;;;;3.45;2.50;;;1.40;1.00;;;;;;4950188;28;20039;-80
2023/12/01 09:35:43;;;;;;;5.05;2.92;;;1.50;1.00;;;;;;4963253;28;20050;-80
2023/12/01 09:38:09;;;;;;;5.38;3.55;;;1.50;1.00;;;;;;4947081;28;20046;-80
2023/12/01 09:40:40;;;;;;;2.58;2.38;;;1.50;1.00;;;;;;4950370;28;20073;-81
2023/12/01 09:43:08;;;;;;;1.38;1.27;;;1.60;1.00;;;;;;4936977;28;20043;-76
2023/12/01 09:45:34;;;;;;;2.55;2.15;;;1.60;1.00;;;;;;4965591;28;20057;-80
2023/12/01 09:48:05;;;;;;;3.47;3.20;;;1.60;1.00;;;;;;4967615;28;20041;-79
2023/12/01 09:50:32;;;;;;;1.60;1.50;;;1.70;1.00;;;;;;4956965;28;20031;-80
2023/12/01 09:52:58;;;;;;;5.18;4.32;;;1.70;1.00;;;;;;4962057;28;20035;-80
2023/12/01 09:55:25;;;;;;;3.92;3.22;;;1.70;1.00;;;;;;4964982;28;20042;-80
2023/12/01 09:57:53;;;;;;;4.05;3.45;;;1.70;1.00;;;;;;4966345;28;20027;-78
2023/12/01 10:00:20;;;;;;;2.47;2.25;;;1.80;1.00;;;;;;4953604;28;20047;-79
2023/12/01 10:02:46;;;;;;;2.33;2.15;;;1.90;1.00;;;;;;4962075;28;20041;-79
2023/12/01 10:05:13;;;;;;;2.08;1.85;;;1.90;1.00;;;;;;4964577;28;20039;-80
2023/12/01 10:07:40;;;;;;;6.95;2.67;;;1.90;1.00;;;;;;4966181;28;20042;-79
2023/12/01 10:10:21;;;;;;;9.32;1.58;;;1.90;99.90;;;;;;4965895;28;20031;-78
2023/12/01 10:12:58;;;;;;;2.38;2.25;;;1.90;99.90;;;;;;4950673;28;20038;-81
2023/12/01 10:15:26;;;;;;;3.53;3.25;;;1.90;99.90;;;;;;4946790;28;20051;-80
2023/12/01 10:17:53;;;;;;;3.58;3.33;;;1.90;99.90;;;;;;4977363;28;20484;-85
2023/12/01 10:20:23;;;;;;;2.28;2.17;;;1.90;99.90;;;;;;4968864;28;20035;-85
2023/12/01 10:22:49;;;;;;;2.17;2.08;;;2.00;99.90;;;;;;4968483;28;20035;-82
2023/12/01 10:25:16;;;;;;;7.15;4.43;;;2.00;99.90;;;;;;4965377;28;20467;-83
2023/12/01 10:27:54;;;;;;;1.65;1.55;;;2.00;99.90;;;;;;4969217;28;20035;-81
2023/12/01 10:30:21;;;;;;;2.95;2.75;;;2.00;99.90;;;;;;4961745;28;20038;-83
2023/12/01 10:32:48;;;;;;;2.67;2.42;;;2.10;99.90;;;;;;4962361;28;20039;-84
2023/12/01 10:35:14;;;;;;;5.43;2.13;;;2.00;99.90;;;;;;4964363;28;20042;-83
2023/12/01 10:37:41;;;;;;;2.17;1.95;;;2.10;99.90;;;;;;4963289;28;20412;-79
2023/12/01 10:40:09;;;;;;;4.60;3.13;;;2.10;99.90;;;;;;4969155;28;20042;-81
2023/12/01 10:42:36;;;;;;;1.55;0.90;;;2.10;99.90;;;;;;4961201;28;20046;-77
2023/12/01 10:45:04;;;;;;;1.92;1.63;;;2.10;99.90;;;;;;4964384;28;20058;-78
2023/12/01 10:47:32;;;;;;;3.08;2.85;;;2.10;99.90;;;;;;4964319;28;20042;-77
2023/12/01 10:50:02;;;;;;;2.40;2.20;;;2.20;99.90;;;;;;4964293;28;20145;-77
2023/12/01 10:52:30;;;;;;;1.27;1.25;;;2.20;99.90;;;;;;4958852;28;20384;-77
2023/12/01 10:54:56;;;;;;;5.28;2.55;;;2.20;99.90;;;;;;4957654;28;20035;-77
2023/12/01 10:57:35;;;;;;;2.13;1.92;;;2.20;99.90;;;;;;4965461;28;20569;-77
2023/12/01 11:00:06;;;;;;;7.10;2.08;;;2.20;99.90;;;;;;4964346;28;20043;-77
2023/12/01 11:02:34;;;;;;;2.65;2.50;;;2.20;99.90;;;;;;4963979;28;20058;-74
2023/12/01 11:05:01;;;;;;;3.70;1.95;;;2.20;99.90;;;;;;4960366;28;20050;-76
2023/12/01 11:08:02;;;;;;;2.50;2.30;;;2.20;99.90;;;;;;4966319;28;20034;-77
2023/12/01 11:10:38;;;;;;;2.13;1.95;;;2.20;99.90;;;;;;4967139;28;20484;-77
2023/12/01 11:13:14;;;;;;;2.30;2.10;;;2.10;99.90;;;;;;4967876;28;20038;-77
2023/12/01 11:15:43;;;;;;;2.63;2.40;;;2.10;99.90;;;;;;4959142;28;20388;-76
2023/12/01 11:18:10;;;;;;;2.95;2.60;;;2.00;99.90;;;;;;4965120;28;20054;-77
2023/12/01 11:20:41;;;;;;;6.38;2.28;;;2.10;99.90;;;;;;4967626;28;20045;-76
2023/12/01 11:23:12;;;;;;;2.13;1.93;;;2.20;99.90;;;;;;4967789;28;20039;-76
2023/12/01 11:25:55;;;;;;;2.50;1.75;;;2.10;99.90;;;;;;4974254;28;20317;-78
2023/12/01 11:31:22;;;;;;;2.30;2.20;;;2.00;99.90;;;;;;4984634;28;20043;-74
2023/12/01 11:33:54;;;;;;;1.85;1.42;;;2.00;99.90;;;;;;4974234;28;20050;-76
2023/12/01 11:36:20;;;;;;;1.27;1.20;;;2.00;99.90;;;;;;4957865;29;20062;-77
2023/12/01 11:41:44;;;;;;;2.30;2.15;;;2.00;99.90;;;;;;4984101;28;20037;-77
2023/12/01 11:44:18;;;;;;;2.30;2.08;;;2.00;99.90;;;;;;4986018;28;20054;-76
2023/12/01 11:46:45;;;;;;;3.50;2.40;;;2.00;99.90;;;;;;4983263;28;20051;-77
2023/12/01 11:49:13;;;;;;;3.35;2.70;;;2.00;99.90;;;;;;4988894;28;20010;-74
2023/12/01 11:51:43;;;;;;;1.60;1.25;;;2.00;99.90;;;;;;4963628;28;20038;-77
2023/12/01 11:54:11;;;;;;;2.50;2.40;;;2.00;99.90;;;;;;4972436;28;20031;-77
2023/12/01 11:56:39;;;;;;;2.50;2.25;;;2.00;99.90;;;;;;4971341;28;20051;-78
2023/12/01 11:59:08;;;;;;;6.57;1.83;;;2.00;99.90;;;;;;4983628;28;20050;-78
2023/12/01 12:01:34;;;;;;;5.97;3.10;;;2.00;99.90;;;;;;4979532;28;20050;-78
2023/12/01 12:04:04;;;;;;;5.43;4.53;;;2.00;99.90;;;;;;4982017;28;20119;-77
2023/12/01 12:06:33;;;;;;;5.22;2.42;;;2.00;99.90;;;;;;4981609;28;20050;-75
2023/12/01 12:09:06;;;;;;;3.30;3.00;;;2.00;99.90;;;;;;4961163;28;20031;-75
2023/12/01 12:11:35;;;;;;;3.60;1.50;;;2.00;99.90;;;;;;4966824;28;20046;-78
2023/12/01 12:14:02;;;;;;;2.85;2.65;;;2.00;99.90;;;;;;4972217;28;20023;-77
2023/12/01 12:16:29;;;;;;;15.43;2.53;;;2.00;99.90;;;;;;4965506;28;20051;-76
2023/12/01 12:19:00;;;;;;;2.45;2.25;;;2.10;99.90;;;;;;4965991;28;20058;-77
2023/12/01 12:21:27;;;;;;;2.58;2.47;;;2.00;99.90;;;;;;4986136;28;20034;-76
2023/12/01 12:23:54;;;;;;;2.40;2.20;;;2.00;99.90;;;;;;4983459;28;20062;-76
2023/12/01 12:26:25;;;;;;;3.13;2.92;;;2.00;99.90;;;;;;4971304;28;20038;-77
2023/12/01 12:29:00;;;;;;;2.20;1.90;;;2.10;99.90;;;;;;4970399;28;20025;-78
2023/12/01 12:31:29;;;;;;;2.58;2.38;;;2.10;99.90;;;;;;4971754;28;20034;-75
2023/12/01 12:33:56;;;;;;;2.42;2.28;;;2.10;99.90;;;;;;4965542;28;20039;-75
2023/12/01 12:36:26;;;;;;;1.65;1.55;;;2.10;99.90;;;;;;4967218;28;20065;-76
2023/12/01 12:38:53;;;;;;;2.83;2.63;;;2.10;99.90;;;;;;4967053;28;20049;-78
2023/12/01 12:41:27;;;;;;;4.50;2.60;;;2.10;99.90;;;;;;4959858;28;20464;-82
2023/12/01 12:43:59;;;;;;;3.42;2.60;;;2.10;99.90;;;;;;4972853;28;20034;-79
2023/12/01 12:46:25;;;;;;;;;;;2.10;99.90;;;;;;4983608;28;20055;-83
2023/12/01 12:48:56;;;;;;;8.82;3.25;;;2.10;99.90;;;;;;4984547;28;19906;-84
2023/12/01 12:51:27;;;;;;;4.18;3.33;;;2.10;99.90;;;;;;4969509;28;20031;-83
2023/12/01 12:53:54;;;;;;;2.33;2.10;;;2.10;99.90;;;;;;4973171;28;20042;-84
2023/12/01 12:56:24;;;;;;;3.70;3.38;;;2.10;99.90;;;;;;4973715;28;21562;-82
2023/12/01 12:58:51;;;;;;;1.63;1.52;;;2.20;99.90;;;;;;4964595;28;20038;-80
2023/12/01 13:01:18;;;;;;;2.67;1.80;;;2.10;99.90;;;;;;4962782;28;20031;-79
2023/12/01 13:03:45;;;;;;;3.25;2.45;;;2.10;99.90;;;;;;4974846;28;20030;-83
2023/12/01 13:06:12;;;;;;;3.95;3.08;;;2.10;99.90;;;;;;4946125;28;20053;-83